Flight Track Log - Related Links

Times and Time Zones

All times are in EDT time to prevent confusion due to time zone crossing. See the EWG3433 flight status page for this flight to view local times or setup timezone preferences in your user account.

Time Position Orientation Groundspeed Altitude Reporting Facility
EDT Latitude Longitude Course Direction KTS MPH feet Rate Location/Type
Wed 10:39:00 AM 53.2476 -1.6973 107° East  Level Estimated
Wed 10:40:00 AM 53.2116 -1.5054 107° East  Level Estimated
Wed 10:41:00 AM 53.1753 -1.3139 107° East  Level Estimated
Wed 10:42:00 AM 53.1387 -1.1226 108° East  Level Estimated
Wed 10:43:00 AM 53.1018 -0.9317 108° East  Level Estimated
Wed 10:44:00 AM 53.0645 -0.7411 108° East  Level Estimated
Wed 10:45:00 AM 53.0270 -0.5508 108° East  Level Estimated
Wed 10:46:00 AM 52.9892 -0.3609 108° East  Level Estimated
Wed 10:47:00 AM 52.9510 -0.1713 108° East  Level Estimated
Wed 10:48:00 AM 52.9126 0.0180 109° East  Level Estimated
Wed 10:49:00 AM 52.8739 0.2069 109° East  Level Estimated
Wed 10:50:00 AM 52.8348 0.3955 109° East  Level Estimated
Wed 10:51:00 AM 52.7955 0.5838 109° East  Level Estimated
Wed 10:52:00 AM 52.7559 0.7717 109° East  Level Estimated
Wed 10:53:00 AM 52.7159 0.9592 109° East  Level Estimated
Wed 10:54:00 AM 52.6757 1.1464 109° East  Level Estimated
Wed 10:55:00 AM 52.6352 1.3333 110° East  Level Estimated
Wed 10:56:00 AM 52.5944 1.5198 110° East  Level Estimated
Wed 10:57:00 AM 52.5533 1.7060 110° East  Level Estimated
Wed 10:58:00 AM 52.5119 1.8918 110° East  Level Estimated
Wed 10:59:00 AM 52.4702 2.0773 110° East  Level Estimated
Wed 11:00:00 AM 52.4282 2.2625 110° East  Level Estimated
Wed 11:01:00 AM 52.3860 2.4472 110° East  Level Estimated
Wed 11:02:00 AM 52.3434 2.6316 111° Southeast  Level Estimated
Wed 11:03:00 AM 52.3006 2.8157 111° Southeast  Level Estimated
Wed 11:04:00 AM 52.2575 2.9994 111° Southeast  Level Estimated
Wed 11:05:00 AM 52.2141 3.1828 111° Southeast  Level Estimated
Wed 11:06:00 AM 52.1704 3.3658 111° Southeast  Level Estimated
Wed 11:07:00 AM 52.1264 3.5484 111° Southeast  Level Estimated
Wed 11:08:00 AM 52.0821 3.7306 111° Southeast  Level Estimated
Wed 11:09:00 AM 52.0376 3.9125 112° Southeast  Level Estimated
Wed 11:10:00 AM 51.9928 4.0941 112° Southeast  Level Estimated
Wed 11:11:00 AM 51.9477 4.2753 112° Southeast  Level Estimated
Wed 11:12:00 AM 51.9023 4.4561 112° Southeast  Level Estimated
Wed 11:13:00 AM 51.8567 4.6365 112° Southeast  Level Estimated
Wed 11:14:00 AM 51.8108 4.8166 112° Southeast  Level Estimated
Wed 11:15:00 AM 51.7646 4.9963 112° Southeast  Level Estimated
Wed 11:16:00 AM 51.7181 5.1757 113° Southeast  Level Estimated
Wed 11:17:00 AM 51.6713 5.3546 113° Southeast  Level Estimated
Wed 11:18:00 AM 51.6243 5.5332 113° Southeast  Level Estimated
Wed 11:19:00 AM 51.5770 5.7115 113° Southeast  Level Estimated
Wed 11:20:00 AM 51.5295 5.8893 113° Southeast  Level Estimated
Wed 11:21:00 AM 51.4817 6.0668 113° Southeast  Level Estimated
Wed 11:22:00 AM 51.4336 6.2439 113° Southeast  Level Estimated
Wed 11:23:00 AM 51.3852 6.4207 114° Southeast  Level Estimated
Wed 11:24:00 AM 51.3366 6.5970 114° Southeast  Level Estimated
Wed 11:25:00 AM 51.2895 6.7668 114° Southeast  Level Estimated
Wed 11:26:00 AM 51.2895 6.7668 314° West  Level Estimated
Wed 11:27:00 AM 51.2895 6.7668 46° Northeast  Level Estimated
Wed 11:28:00 AM 51.2895 6.7668 314° West  Level Estimated
Wed 11:29:00 AM 51.2895 6.7668 46° Northeast  Level Estimated
Wed 11:30:00 AM 51.2895 6.7668 314° West  Level Estimated
Wed 11:31:00 AM 51.2895 6.7668 46° Northeast  Level Estimated
Wed 11:32:00 AM 51.2895 6.7668 314° West  Level Estimated
Wed 11:33:00 AM 51.2895 6.7668 46° Northeast  Level Estimated
Wed 11:34:00 AM 51.2895 6.7668 314° West  Level Estimated
Wed 11:35:00 AM 51.2895 6.7668 46° Northeast  Level Estimated
Wed 11:36:00 AM 51.2895 6.7668 314° West  Level Estimated
Wed 11:37:00 AM 51.2895 6.7668 46° Northeast  Level Estimated
Wed 11:38:00 AM 51.2895 6.7668 314° West  Level Estimated
Wed 11:39:00 AM 51.2895 6.7668 46° Northeast  Level Estimated
Wed 11:40:00 AM 51.2895 6.7668 314° West  Level Estimated
Wed 11:41:00 AM 51.2895 6.7668 46° Northeast  Level Estimated

Login

Don't have an account? Register now (free) for customized features, flight alerts, and more!